Time;durP1;ratioP1;P1;durP2;ratioP2;P2;SDS_P1;SDS_P2;PMS_P1;PMS_P2;Temp;Humidity;BMP_temperature;BMP_pressure;BME280_temperature;BME280_humidity;BME280_pressure;Samples;Min_cycle;Max_cycle;Signal;HPM_P1;HPM_P2
2020/12/09 00:01:30;;;;;;;42.95;6.95;;;;;;;;;;4961424;28;20023;-60
2020/12/09 00:04:00;;;;;;;71.25;9.50;;;;;;;;;;4956397;28;20027;-60
2020/12/09 00:06:27;;;;;;;56.25;7.78;;;;;;;;;;4955943;28;20055;-60
2020/12/09 00:08:55;;;;;;;81.53;8.95;;;;;;;;;;4955448;29;20027;-55
2020/12/09 00:11:22;;;;;;;122.80;11.68;;;;;;;;;;4956673;28;20399;-44
2020/12/09 00:13:49;;;;;;;83.95;10.35;;;;;;;;;;4946780;29;20035;-46
2020/12/09 00:16:18;;;;;;;166.13;18.77;;;;;;;;;;4950498;28;20041;-36
2020/12/09 00:18:46;;;;;;;286.52;32.78;;;;;;;;;;4944457;28;20476;-36
2020/12/09 00:21:22;;;;;;;194.52;21.63;;;;;;;;;;4951965;28;20034;-35
2020/12/09 00:23:51;;;;;;;204.93;23.88;;;;;;;;;;4959072;28;20019;-38
2020/12/09 00:26:25;;;;;;;166.60;19.95;;;;;;;;;;4941562;29;20027;-62
2020/12/09 00:28:53;;;;;;;284.25;31.38;;;;;;;;;;4950871;28;20067;-42
2020/12/09 00:31:22;;;;;;;195.05;20.85;;;;;;;;;;4953336;28;20517;-41
2020/12/09 00:33:50;;;;;;;126.07;16.02;;;;;;;;;;4949538;28;20024;-42
2020/12/09 00:36:21;;;;;;;183.48;18.80;;;;;;;;;;4937873;29;20043;-43
2020/12/09 00:38:49;;;;;;;147.50;17.30;;;;;;;;;;4942788;28;20411;-41
2020/12/09 00:41:17;;;;;;;206.35;21.65;;;;;;;;;;4945079;28;20040;-42
2020/12/09 00:43:45;;;;;;;198.55;21.27;;;;;;;;;;4947451;28;20168;-41
2020/12/09 00:46:15;;;;;;;142.07;17.23;;;;;;;;;;4948705;28;20479;-40
2020/12/09 00:48:43;;;;;;;82.70;11.80;;;;;;;;;;4951090;28;20023;-44
2020/12/09 00:51:16;;;;;;;101.95;10.50;;;;;;;;;;4947950;28;20067;-42
2020/12/09 00:53:44;;;;;;;95.15;11.75;;;;;;;;;;4941605;28;20075;-43
2020/12/09 00:56:11;;;;;;;102.90;13.00;;;;;;;;;;4947335;28;20038;-42
2020/12/09 00:58:39;;;;;;;71.93;9.63;;;;;;;;;;4955384;28;20035;-43
2020/12/09 01:01:12;;;;;;;89.60;10.27;;;;;;;;;;4949415;28;20734;-42
2020/12/09 01:03:48;;;;;;;116.55;14.23;;;;;;;;;;4953416;28;20023;-42
2020/12/09 01:06:18;;;;;;;76.82;10.52;;;;;;;;;;4954443;28;20051;-44
2020/12/09 01:08:46;;;;;;;59.80;7.47;;;;;;;;;;4947736;28;20030;-42
2020/12/09 01:11:14;;;;;;;102.80;11.88;;;;;;;;;;4950021;28;20483;-43
2020/12/09 01:13:44;;;;;;;99.03;12.90;;;;;;;;;;4947804;28;20040;-43
2020/12/09 01:16:15;;;;;;;80.65;9.82;;;;;;;;;;4951082;28;20027;-43
2020/12/09 01:18:43;;;;;;;50.03;7.13;;;;;;;;;;4950562;28;20027;-45
2020/12/09 01:21:10;;;;;;;146.98;14.90;;;;;;;;;;4951307;28;20024;-45
2020/12/09 01:23:37;;;;;;;94.57;10.43;;;;;;;;;;4953168;28;20038;-46
2020/12/09 01:26:13;;;;;;;64.18;7.93;;;;;;;;;;4949096;28;20032;-45
2020/12/09 01:28:40;;;;;;;47.05;5.75;;;;;;;;;;4949150;28;20023;-43
2020/12/09 01:31:07;;;;;;;53.95;6.43;;;;;;;;;;4940781;28;20024;-41
2020/12/09 01:33:34;;;;;;;42.00;5.30;;;;;;;;;;4930434;28;20042;-43
2020/12/09 01:36:01;;;;;;;109.85;9.75;;;;;;;;;;4949431;28;20028;-43
2020/12/09 01:38:29;;;;;;;66.47;8.15;;;;;;;;;;4949270;28;20020;-45
2020/12/09 01:40:57;;;;;;;60.55;7.07;;;;;;;;;;4949360;28;20114;-43
2020/12/09 01:43:24;;;;;;;122.35;14.80;;;;;;;;;;4951254;28;20020;-42
2020/12/09 01:45:51;;;;;;;147.77;15.52;;;;;;;;;;5024411;23;20142;-43
2020/12/09 01:48:21;;;;;;;58.58;7.68;;;;;;;;;;4922232;29;20561;-45
2020/12/09 01:50:48;;;;;;;50.03;5.32;;;;;;;;;;4936497;29;20407;-44
2020/12/09 01:53:15;;;;;;;38.97;5.72;;;;;;;;;;4931841;29;20554;-46
2020/12/09 01:55:42;;;;;;;45.78;5.85;;;;;;;;;;4926790;29;20032;-43
2020/12/09 01:58:09;;;;;;;43.70;5.45;;;;;;;;;;4934877;29;20479;-44
2020/12/09 02:00:38;;;;;;;83.53;8.75;;;;;;;;;;4943781;29;20534;-43
2020/12/09 02:03:06;;;;;;;66.03;7.20;;;;;;;;;;4928412;29;20071;-46
2020/12/09 02:05:33;;;;;;;42.40;4.55;;;;;;;;;;4931541;29;20032;-42
2020/12/09 02:08:03;;;;;;;35.65;4.80;;;;;;;;;;4930393;29;20032;-44
2020/12/09 02:10:30;;;;;;;41.47;5.30;;;;;;;;;;4940502;29;20046;-43
2020/12/09 02:13:03;;;;;;;55.20;6.82;;;;;;;;;;4934490;29;20043;-43
2020/12/09 02:15:30;;;;;;;50.10;5.53;;;;;;;;;;4932675;29;20118;-43
2020/12/09 02:17:57;;;;;;;32.83;4.45;;;;;;;;;;4927018;29;20024;-47
2020/12/09 02:20:25;;;;;;;20.50;3.70;;;;;;;;;;4931800;29;20024;-43
2020/12/09 02:22:53;;;;;;;31.80;4.03;;;;;;;;;;4932280;29;20052;-41
2020/12/09 02:25:20;;;;;;;22.98;3.35;;;;;;;;;;4935090;29;20115;-46
2020/12/09 02:27:50;;;;;;;28.25;3.55;;;;;;;;;;4935294;29;20047;-43
2020/12/09 02:30:20;;;;;;;24.48;3.00;;;;;;;;;;4928594;29;20467;-42
2020/12/09 02:32:47;;;;;;;14.20;2.20;;;;;;;;;;4944768;29;20075;-44
2020/12/09 02:35:14;;;;;;;17.10;2.13;;;;;;;;;;4957278;28;20031;-42
2020/12/09 02:37:41;;;;;;;15.85;2.28;;;;;;;;;;4942789;28;20027;-43
2020/12/09 02:40:11;;;;;;;39.10;4.72;;;;;;;;;;4946602;28;20059;-45
2020/12/09 02:42:39;;;;;;;26.08;3.13;;;;;;;;;;4942016;29;20039;-43
2020/12/09 02:45:06;;;;;;;14.57;2.35;;;;;;;;;;4940818;28;20495;-48
2020/12/09 02:47:33;;;;;;;27.70;2.78;;;;;;;;;;4956711;28;20082;-45
2020/12/09 02:50:00;;;;;;;36.95;3.28;;;;;;;;;;4961584;28;20430;-45
2020/12/09 02:52:30;;;;;;;41.65;4.07;;;;;;;;;;4959560;28;20480;-49
2020/12/09 02:54:57;;;;;;;18.02;2.80;;;;;;;;;;4972596;28;20463;-44
2020/12/09 02:57:24;;;;;;;16.70;2.85;;;;;;;;;;4969542;28;20030;-43
2020/12/09 02:59:52;;;;;;;25.88;3.00;;;;;;;;;;4955842;28;20051;-46
2020/12/09 03:02:19;;;;;;;19.35;3.35;;;;;;;;;;4952823;29;20039;-44
2020/12/09 03:04:46;;;;;;;21.73;3.28;;;;;;;;;;4952442;29;20127;-44
2020/12/09 03:07:13;;;;;;;19.45;2.38;;;;;;;;;;4953604;29;20066;-44
2020/12/09 03:09:41;;;;;;;25.98;3.35;;;;;;;;;;4953352;28;20072;-46
2020/12/09 03:12:08;;;;;;;18.63;3.30;;;;;;;;;;4954241;29;20067;-39
2020/12/09 03:14:35;;;;;;;29.88;4.00;;;;;;;;;;4953619;29;20026;-38
2020/12/09 03:17:02;;;;;;;26.38;3.70;;;;;;;;;;4953671;29;20050;-40
2020/12/09 03:19:29;;;;;;;41.63;4.45;;;;;;;;;;4954065;29;20023;-41
2020/12/09 03:21:56;;;;;;;50.30;6.53;;;;;;;;;;4953287;28;20039;-41
2020/12/09 03:24:24;;;;;;;59.08;6.85;;;;;;;;;;4953683;29;20027;-39
2020/12/09 03:26:51;;;;;;;53.10;7.55;;;;;;;;;;4953651;29;20106;-41
2020/12/09 03:29:18;;;;;;;84.32;8.85;;;;;;;;;;4954411;29;20019;-40
2020/12/09 03:31:45;;;;;;;190.00;23.83;;;;;;;;;;4953968;29;20038;-43
2020/12/09 03:34:13;;;;;;;222.43;21.92;;;;;;;;;;4953555;29;20105;-41
2020/12/09 03:36:40;;;;;;;317.52;31.33;;;;;;;;;;4953541;29;20075;-41
2020/12/09 03:39:07;;;;;;;81.00;9.02;;;;;;;;;;4953704;29;20110;-39
2020/12/09 03:41:34;;;;;;;71.00;7.78;;;;;;;;;;4952202;29;20030;-41
2020/12/09 03:44:01;;;;;;;113.15;12.65;;;;;;;;;;4953277;28;20030;-40
2020/12/09 03:46:28;;;;;;;90.85;9.23;;;;;;;;;;4953184;29;20059;-40
2020/12/09 03:48:55;;;;;;;58.03;7.80;;;;;;;;;;4953737;29;20024;-40
2020/12/09 03:51:22;;;;;;;75.22;9.10;;;;;;;;;;4953484;29;20118;-40
2020/12/09 03:53:49;;;;;;;120.13;13.40;;;;;;;;;;4953445;29;20062;-43
2020/12/09 03:56:16;;;;;;;58.00;7.80;;;;;;;;;;4953339;29;20070;-41
2020/12/09 03:58:43;;;;;;;41.80;5.82;;;;;;;;;;4953644;29;20031;-40
2020/12/09 04:01:11;;;;;;;59.65;7.20;;;;;;;;;;4953538;28;20086;-43
2020/12/09 04:03:38;;;;;;;48.15;6.38;;;;;;;;;;4952941;29;20045;-40
2020/12/09 04:06:05;;;;;;;58.70;6.07;;;;;;;;;;4953062;28;20034;-39
2020/12/09 04:08:33;;;;;;;89.55;10.10;;;;;;;;;;4953603;28;20101;-43
2020/12/09 04:11:00;;;;;;;149.25;15.70;;;;;;;;;;4953378;29;20106;-45
2020/12/09 04:13:27;;;;;;;150.10;15.23;;;;;;;;;;4953274;28;20086;-40
2020/12/09 04:15:54;;;;;;;98.88;11.50;;;;;;;;;;4952893;29;20572;-40
2020/12/09 04:18:21;;;;;;;111.88;12.73;;;;;;;;;;4951127;28;20043;-39
2020/12/09 04:20:48;;;;;;;44.20;6.30;;;;;;;;;;4952727;28;20058;-40
2020/12/09 04:23:15;;;;;;;35.22;4.75;;;;;;;;;;4957235;29;20030;-38
2020/12/09 04:25:42;;;;;;;52.28;6.22;;;;;;;;;;4957106;29;20051;-41
2020/12/09 04:28:10;;;;;;;47.53;5.97;;;;;;;;;;4957355;29;20027;-40
2020/12/09 04:30:37;;;;;;;39.75;6.22;;;;;;;;;;4956882;29;20468;-41
2020/12/09 04:33:04;;;;;;;39.00;4.20;;;;;;;;;;4956441;29;20142;-39
2020/12/09 04:35:31;;;;;;;27.52;3.90;;;;;;;;;;4956077;28;20058;-42
2020/12/09 04:37:58;;;;;;;31.88;3.60;;;;;;;;;;4939514;29;20068;-42
2020/12/09 04:40:25;;;;;;;42.15;4.00;;;;;;;;;;4956880;29;20019;-40
2020/12/09 04:42:59;;;;;;;52.70;5.30;;;;;;;;;;4956759;29;20110;-40
2020/12/09 04:45:28;;;;;;;37.50;3.83;;;;;;;;;;4956804;29;20128;-41
2020/12/09 04:48:11;;;;;;;26.05;2.90;;;;;;;;;;4956737;29;20074;-39
2020/12/09 04:50:57;;;;;;;24.98;3.20;;;;;;;;;;4956463;29;20027;-41
2020/12/09 04:53:31;;;;;;;21.67;2.78;;;;;;;;;;4956706;29;20035;-40
2020/12/09 04:55:59;;;;;;;32.70;3.10;;;;;;;;;;4956636;29;20031;-41
2020/12/09 04:58:26;;;;;;;28.30;2.80;;;;;;;;;;4956731;29;20039;-40
2020/12/09 05:01:03;;;;;;;29.00;3.70;;;;;;;;;;4956370;29;20426;-40
2020/12/09 05:03:35;;;;;;;28.13;3.10;;;;;;;;;;4939180;29;20491;-44
2020/12/09 05:06:02;;;;;;;24.38;2.60;;;;;;;;;;4956603;29;20386;-43
2020/12/09 05:08:32;;;;;;;34.22;2.83;;;;;;;;;;4956465;29;20054;-40
2020/12/09 05:11:01;;;;;;;23.52;2.30;;;;;;;;;;4956311;29;20777;-44
2020/12/09 05:13:28;;;;;;;38.63;3.38;;;;;;;;;;4956426;29;20035;-41
2020/12/09 05:15:56;;;;;;;17.65;2.22;;;;;;;;;;4956321;29;20066;-41
2020/12/09 05:18:42;;;;;;;12.80;1.90;;;;;;;;;;4956095;29;20591;-42
2020/12/09 05:21:17;;;;;;;19.23;2.10;;;;;;;;;;4956227;29;20056;-44
2020/12/09 05:23:48;;;;;;;14.85;1.92;;;;;;;;;;4956238;29;20427;-44
2020/12/09 05:26:24;;;;;;;17.65;1.85;;;;;;;;;;4956352;29;20055;-45
2020/12/09 05:29:04;;;;;;;16.33;1.98;;;;;;;;;;4955806;29;20031;-40
2020/12/09 05:31:31;;;;;;;17.25;2.00;;;;;;;;;;4956122;28;20049;-42
2020/12/09 05:33:58;;;;;;;19.70;1.88;;;;;;;;;;4955849;29;20034;-39
2020/12/09 05:36:27;;;;;;;21.48;2.08;;;;;;;;;;4955859;29;20073;-41
2020/12/09 05:39:06;;;;;;;17.52;1.90;;;;;;;;;;4955645;29;20031;-45
2020/12/09 05:41:34;;;;;;;20.33;2.17;;;;;;;;;;4955970;29;20447;-46
2020/12/09 05:44:04;;;;;;;25.23;2.40;;;;;;;;;;4938576;29;20040;-42
2020/12/09 05:46:31;;;;;;;14.98;1.92;;;;;;;;;;4955601;29;20055;-39
2020/12/09 05:48:58;;;;;;;21.00;2.42;;;;;;;;;;4955422;29;20383;-40
2020/12/09 05:51:26;;;;;;;14.75;2.25;;;;;;;;;;4955568;29;20357;-43
2020/12/09 05:53:53;;;;;;;15.65;1.92;;;;;;;;;;4955676;29;20038;-42
2020/12/09 05:56:26;;;;;;;15.05;1.70;;;;;;;;;;4955939;29;20023;-42
2020/12/09 05:58:53;;;;;;;20.88;2.13;;;;;;;;;;4955348;29;20039;-41
2020/12/09 06:01:24;;;;;;;36.35;3.72;;;;;;;;;;4955646;29;20098;-42
2020/12/09 06:03:55;;;;;;;32.20;2.17;;;;;;;;;;4954948;29;20387;-43
2020/12/09 06:06:25;;;;;;;20.67;2.13;;;;;;;;;;4955682;29;20110;-41
2020/12/09 06:08:53;;;;;;;13.25;1.42;;;;;;;;;;4954958;29;20035;-43
2020/12/09 06:11:24;;;;;;;25.67;1.55;;;;;;;;;;4955311;29;20036;-44
2020/12/09 06:13:52;;;;;;;21.52;1.33;;;;;;;;;;4955285;29;20019;-43
2020/12/09 06:16:20;;;;;;;10.48;1.27;;;;;;;;;;4955081;29;20027;-41
2020/12/09 06:18:48;;;;;;;10.50;1.00;;;;;;;;;;4954623;29;20066;-42
2020/12/09 06:21:15;;;;;;;5.80;0.60;;;;;;;;;;4955323;29;20042;-43
2020/12/09 06:23:44;;;;;;;9.93;0.95;;;;;;;;;;4954870;29;20031;-45
2020/12/09 06:26:12;;;;;;;14.18;1.15;;;;;;;;;;4954841;29;20039;-41
2020/12/09 06:28:44;;;;;;;10.15;0.80;;;;;;;;;;4954414;29;20031;-42
2020/12/09 06:31:12;;;;;;;11.75;0.70;;;;;;;;;;4954705;29;20598;-40
2020/12/09 06:33:47;;;;;;;13.48;1.70;;;;;;;;;;4954582;29;20186;-39
2020/12/09 06:36:14;;;;;;;8.07;1.13;;;;;;;;;;4954639;29;20502;-50
2020/12/09 06:38:41;;;;;;;10.50;0.88;;;;;;;;;;4954278;29;20035;-46
2020/12/09 06:41:08;;;;;;;9.00;1.10;;;;;;;;;;4954573;29;20491;-44
2020/12/09 06:43:35;;;;;;;7.40;1.02;;;;;;;;;;4953917;28;20416;-47
2020/12/09 06:46:02;;;;;;;6.72;0.93;;;;;;;;;;4954019;29;20059;-43
2020/12/09 06:48:37;;;;;;;9.95;1.02;;;;;;;;;;4952993;28;20392;-45
2020/12/09 06:51:24;;;;;;;20.05;1.00;;;;;;;;;;4954467;29;20027;-48
2020/12/09 06:54:26;;;;;;;15.13;1.25;;;;;;;;;;4953952;28;20538;-48
2020/12/09 06:57:11;;;;;;;9.73;1.00;;;;;;;;;;4913346;29;20071;-43
2020/12/09 06:59:38;;;;;;;10.20;0.98;;;;;;;;;;4951432;29;20039;-47
2020/12/09 07:02:06;;;;;;;11.32;1.13;;;;;;;;;;4954592;29;20030;-46
2020/12/09 07:04:51;;;;;;;7.20;0.68;;;;;;;;;;4953622;29;20031;-49
2020/12/09 07:07:32;;;;;;;8.77;1.25;;;;;;;;;;4953865;29;20063;-49
2020/12/09 07:09:59;;;;;;;5.55;1.00;;;;;;;;;;4954049;28;20031;-43
2020/12/09 07:12:26;;;;;;;12.48;1.33;;;;;;;;;;4954270;29;20480;-43
2020/12/09 07:14:55;;;;;;;22.25;1.17;;;;;;;;;;4953672;28;20502;-45
2020/12/09 07:17:23;;;;;;;9.88;0.90;;;;;;;;;;4953754;29;20078;-43
2020/12/09 07:19:50;;;;;;;6.72;0.95;;;;;;;;;;4952942;28;20054;-44
2020/12/09 07:22:18;;;;;;;6.45;1.25;;;;;;;;;;4937116;29;20130;-45
2020/12/09 07:24:45;;;;;;;7.32;0.93;;;;;;;;;;4953432;29;20023;-43
2020/12/09 07:27:14;;;;;;;11.85;1.38;;;;;;;;;;4953846;29;20035;-43
2020/12/09 07:29:41;;;;;;;7.60;1.02;;;;;;;;;;4954163;29;20027;-45
2020/12/09 07:32:08;;;;;;;10.20;1.00;;;;;;;;;;4953808;29;20388;-43
2020/12/09 07:34:36;;;;;;;4.07;1.10;;;;;;;;;;4953236;29;20051;-40
2020/12/09 07:37:03;;;;;;;36.38;4.35;;;;;;;;;;4954162;29;20106;-47
2020/12/09 07:39:34;;;;;;;4.60;1.10;;;;;;;;;;4953733;29;20180;-44
2020/12/09 07:42:02;;;;;;;6.50;1.05;;;;;;;;;;4936381;29;20039;-40
2020/12/09 07:44:29;;;;;;;11.15;0.80;;;;;;;;;;4953149;29;20027;-46
2020/12/09 07:47:00;;;;;;;4.88;0.98;;;;;;;;;;4953363;29;20047;-39
2020/12/09 07:49:27;;;;;;;11.80;1.40;;;;;;;;;;4953751;29;20027;-44
2020/12/09 07:51:53;;;;;;;7.82;1.00;;;;;;;;;;4953636;29;20082;-44
2020/12/09 07:54:21;;;;;;;15.63;1.65;;;;;;;;;;4953099;28;20511;-41
2020/12/09 07:56:48;;;;;;;8.25;1.10;;;;;;;;;;4951671;28;20399;-44
2020/12/09 07:59:15;;;;;;;6.93;1.10;;;;;;;;;;4953589;29;20019;-43
2020/12/09 08:01:42;;;;;;;10.32;1.42;;;;;;;;;;4953489;29;20029;-43
2020/12/09 08:04:09;;;;;;;8.32;1.10;;;;;;;;;;4953066;29;20023;-47
2020/12/09 08:06:37;;;;;;;8.95;0.93;;;;;;;;;;4953486;29;20032;-40
2020/12/09 08:09:14;;;;;;;11.10;1.27;;;;;;;;;;4952628;29;20107;-43
2020/12/09 08:11:44;;;;;;;8.05;0.95;;;;;;;;;;4952941;28;20036;-47
2020/12/09 08:14:14;;;;;;;8.65;1.10;;;;;;;;;;4952860;29;20035;-43
2020/12/09 08:16:41;;;;;;;11.48;1.10;;;;;;;;;;4953442;29;20082;-44
2020/12/09 08:19:10;;;;;;;11.93;1.25;;;;;;;;;;4953486;29;20024;-43
2020/12/09 08:21:38;;;;;;;7.55;0.93;;;;;;;;;;4952751;28;20055;-40
2020/12/09 08:24:14;;;;;;;3.10;0.88;;;;;;;;;;4952480;28;20038;-44
2020/12/09 08:26:43;;;;;;;16.38;1.40;;;;;;;;;;4953219;29;20030;-44
2020/12/09 08:29:17;;;;;;;26.15;1.75;;;;;;;;;;4953261;28;20480;-42
2020/12/09 08:31:44;;;;;;;22.38;2.30;;;;;;;;;;4952815;29;20039;-43
2020/12/09 08:34:14;;;;;;;15.75;1.02;;;;;;;;;;4951970;28;20491;-41
2020/12/09 08:36:41;;;;;;;10.55;1.02;;;;;;;;;;4953091;29;20027;-41
2020/12/09 08:39:08;;;;;;;15.13;1.17;;;;;;;;;;4951481;28;20027;-45
2020/12/09 08:41:36;;;;;;;38.75;2.13;;;;;;;;;;4952631;29;20074;-41
2020/12/09 08:44:04;;;;;;;30.88;1.88;;;;;;;;;;4952758;29;20119;-41
2020/12/09 08:46:31;;;;;;;8.88;0.85;;;;;;;;;;4952605;29;20043;-41
2020/12/09 08:48:59;;;;;;;132.82;10.90;;;;;;;;;;4952686;29;20015;-38
2020/12/09 08:51:27;;;;;;;15.95;2.05;;;;;;;;;;4952686;29;20556;-41
2020/12/09 08:53:55;;;;;;;26.00;1.77;;;;;;;;;;4952721;29;20034;-39
2020/12/09 08:56:40;;;;;;;10.88;0.95;;;;;;;;;;4952724;29;20028;-40
2020/12/09 08:59:07;;;;;;;17.55;1.33;;;;;;;;;;4952843;29;20058;-46
2020/12/09 09:01:37;;;;;;;88.32;7.18;;;;;;;;;;4952761;29;20031;-42
2020/12/09 09:04:06;;;;;;;13.10;1.63;;;;;;;;;;4952847;29;20028;-39
2020/12/09 09:06:33;;;;;;;12.98;1.20;;;;;;;;;;4952450;28;20515;-40
2020/12/09 09:09:00;;;;;;;22.33;2.40;;;;;;;;;;4956354;29;20043;-41
2020/12/09 09:11:31;;;;;;;9.07;1.52;;;;;;;;;;4956287;29;20522;-41
2020/12/09 09:13:58;;;;;;;18.85;1.08;;;;;;;;;;4956494;29;20106;-46
2020/12/09 09:16:25;;;;;;;15.70;1.15;;;;;;;;;;4955825;28;20491;-43
2020/12/09 09:18:52;;;;;;;14.27;1.42;;;;;;;;;;4939334;29;20023;-44
2020/12/09 09:21:19;;;;;;;11.57;1.08;;;;;;;;;;4955864;29;20035;-44
2020/12/09 09:23:46;;;;;;;41.65;4.75;;;;;;;;;;4956291;29;20034;-40
2020/12/09 09:26:14;;;;;;;28.50;2.42;;;;;;;;;;4956402;29;20047;-42
2020/12/09 09:28:41;;;;;;;67.80;6.72;;;;;;;;;;4955893;29;20078;-41
2020/12/09 09:31:08;;;;;;;14.55;2.53;;;;;;;;;;4938648;29;20524;-42
2020/12/09 09:33:35;;;;;;;14.88;0.85;;;;;;;;;;4956352;29;20062;-42
2020/12/09 09:36:03;;;;;;;72.05;7.07;;;;;;;;;;4955829;29;20019;-42
2020/12/09 09:38:30;;;;;;;24.98;2.08;;;;;;;;;;4938582;29;20035;-38
2020/12/09 09:40:57;;;;;;;19.10;1.83;;;;;;;;;;4955955;29;20054;-37
2020/12/09 09:43:24;;;;;;;32.85;3.40;;;;;;;;;;4955753;29;20031;-39
2020/12/09 09:45:51;;;;;;;33.75;2.90;;;;;;;;;;4955594;29;20048;-39
2020/12/09 09:48:18;;;;;;;12.38;1.85;;;;;;;;;;4955688;29;20037;-37
2020/12/09 09:50:45;;;;;;;17.05;1.30;;;;;;;;;;4955484;29;20063;-37
2020/12/09 09:53:12;;;;;;;19.33;1.20;;;;;;;;;;4955770;29;20054;-38
2020/12/09 09:55:39;;;;;;;38.83;4.00;;;;;;;;;;4955466;29;20034;-38
2020/12/09 09:58:06;;;;;;;13.57;2.22;;;;;;;;;;4955652;29;20030;-39
2020/12/09 10:00:33;;;;;;;24.17;2.38;;;;;;;;;;4955007;28;20106;-38
2020/12/09 10:03:00;;;;;;;18.00;1.40;;;;;;;;;;4955331;28;20035;-39
2020/12/09 10:05:27;;;;;;;131.25;13.38;;;;;;;;;;4938039;29;20031;-40
2020/12/09 10:07:54;;;;;;;30.95;2.47;;;;;;;;;;4955485;29;20035;-39
2020/12/09 10:10:21;;;;;;;26.02;2.60;;;;;;;;;;4955459;29;20493;-39
2020/12/09 10:12:48;;;;;;;42.38;3.45;;;;;;;;;;4955059;29;20078;-40
2020/12/09 10:15:15;;;;;;;42.70;3.17;;;;;;;;;;4955145;29;20031;-39
2020/12/09 10:17:42;;;;;;;26.00;2.83;;;;;;;;;;4954799;28;20027;-39
2020/12/09 10:20:09;;;;;;;56.67;4.90;;;;;;;;;;4948605;29;20145;-45
2020/12/09 10:22:36;;;;;;;22.92;2.00;;;;;;;;;;4954366;28;20063;-40
2020/12/09 10:25:03;;;;;;;30.40;3.22;;;;;;;;;;4962396;28;20121;-40
2020/12/09 10:27:30;;;;;;;28.73;2.97;;;;;;;;;;4963554;28;20042;-41
2020/12/09 10:29:57;;;;;;;17.67;2.65;;;;;;;;;;4954479;28;20036;-40
2020/12/09 10:32:26;;;;;;;31.08;2.00;;;;;;;;;;4954373;28;20138;-41
2020/12/09 10:34:53;;;;;;;40.88;5.32;;;;;;;;;;4953040;28;20050;-41
2020/12/09 10:37:20;;;;;;;39.45;3.53;;;;;;;;;;4953951;28;20023;-41
2020/12/09 10:39:51;;;;;;;186.98;20.58;;;;;;;;;;4958439;28;20047;-45
2020/12/09 10:42:19;;;;;;;26.40;2.67;;;;;;;;;;4961685;28;20360;-45
2020/12/09 10:44:47;;;;;;;148.82;14.02;;;;;;;;;;4962404;28;20027;-47
2020/12/09 10:47:14;;;;;;;265.70;24.73;;;;;;;;;;4957818;28;20042;-44
2020/12/09 10:49:44;;;;;;;47.13;5.22;;;;;;;;;;4958010;28;20118;-42
2020/12/09 10:52:12;;;;;;;149.85;15.57;;;;;;;;;;4948950;29;20051;-43
2020/12/09 10:54:39;;;;;;;132.50;11.73;;;;;;;;;;4953243;29;20023;-46
2020/12/09 10:57:06;;;;;;;68.53;7.93;;;;;;;;;;4953464;29;20035;-48
2020/12/09 10:59:33;;;;;;;30.23;3.95;;;;;;;;;;4954457;28;20020;-44
2020/12/09 11:02:00;;;;;;;52.63;5.70;;;;;;;;;;4952866;28;20023;-44
2020/12/09 11:04:27;;;;;;;99.15;9.93;;;;;;;;;;4954086;28;20155;-47
2020/12/09 11:06:54;;;;;;;158.80;14.32;;;;;;;;;;4955857;28;20038;-45
2020/12/09 11:09:21;;;;;;;204.32;14.93;;;;;;;;;;4955016;28;20034;-42
2020/12/09 11:11:48;;;;;;;105.88;8.60;;;;;;;;;;4964533;28;20039;-47
2020/12/09 11:14:15;;;;;;;477.55;41.17;;;;;;;;;;4955070;28;20146;-48
2020/12/09 11:16:43;;;;;;;118.80;11.23;;;;;;;;;;4952829;28;20027;-46
2020/12/09 11:19:10;;;;;;;103.10;8.73;;;;;;;;;;4957735;28;20027;-48
2020/12/09 11:21:40;;;;;;;80.80;8.10;;;;;;;;;;4959409;28;20423;-45
2020/12/09 11:24:07;;;;;;;51.42;4.88;;;;;;;;;;4952295;29;20032;-46
2020/12/09 11:26:34;;;;;;;50.30;4.15;;;;;;;;;;4934428;29;20035;-46
2020/12/09 11:29:01;;;;;;;52.33;3.78;;;;;;;;;;4951015;29;20034;-47
2020/12/09 11:31:28;;;;;;;38.83;3.47;;;;;;;;;;4953440;29;20042;-46
2020/12/09 11:33:55;;;;;;;58.10;4.85;;;;;;;;;;4952377;29;20477;-48
2020/12/09 11:36:23;;;;;;;33.22;3.60;;;;;;;;;;4953522;29;20041;-46
2020/12/09 11:38:50;;;;;;;155.00;10.85;;;;;;;;;;4953256;28;20472;-48
2020/12/09 11:41:17;;;;;;;157.35;13.93;;;;;;;;;;4952189;29;20023;-48
2020/12/09 11:43:44;;;;;;;70.53;7.50;;;;;;;;;;4951796;29;20119;-48
2020/12/09 11:46:11;;;;;;;182.00;19.20;;;;;;;;;;4952859;29;20047;-49
2020/12/09 11:48:38;;;;;;;87.95;7.32;;;;;;;;;;4953390;29;20059;-47
2020/12/09 11:51:05;;;;;;;35.35;3.47;;;;;;;;;;4953556;29;20030;-46
2020/12/09 11:53:33;;;;;;;47.03;4.38;;;;;;;;;;4951665;29;20111;-49
2020/12/09 11:56:00;;;;;;;59.60;5.78;;;;;;;;;;4952872;28;20468;-45
2020/12/09 11:58:27;;;;;;;110.90;9.68;;;;;;;;;;4953658;29;20028;-48
2020/12/09 12:00:54;;;;;;;108.68;12.32;;;;;;;;;;4952850;29;20098;-48
2020/12/09 12:03:21;;;;;;;89.15;9.65;;;;;;;;;;4952988;29;20111;-48
2020/12/09 12:05:52;;;;;;;57.05;6.63;;;;;;;;;;4952998;29;20376;-49
2020/12/09 12:08:19;;;;;;;48.78;5.80;;;;;;;;;;4953495;29;20731;-49
2020/12/09 12:10:46;;;;;;;54.25;5.65;;;;;;;;;;4953220;29;20081;-49
2020/12/09 12:13:13;;;;;;;110.80;10.82;;;;;;;;;;4952929;29;20039;-48
2020/12/09 12:15:41;;;;;;;73.60;8.45;;;;;;;;;;4952483;28;20019;-54
2020/12/09 12:18:09;;;;;;;48.63;5.43;;;;;;;;;;4952255;29;20039;-48
2020/12/09 12:20:36;;;;;;;63.03;6.50;;;;;;;;;;4951981;29;20114;-47
2020/12/09 12:23:03;;;;;;;42.03;3.00;;;;;;;;;;4952454;29;20031;-49
2020/12/09 12:25:30;;;;;;;48.70;4.90;;;;;;;;;;4952220;29;20439;-46
2020/12/09 12:27:57;;;;;;;56.75;7.30;;;;;;;;;;4951622;29;20027;-48
2020/12/09 12:30:24;;;;;;;45.80;4.93;;;;;;;;;;4952788;29;20031;-47
2020/12/09 12:32:51;;;;;;;31.77;4.00;;;;;;;;;;4951649;29;20547;-48
2020/12/09 12:35:18;;;;;;;170.07;18.00;;;;;;;;;;4952307;29;20034;-50
2020/12/09 12:37:45;;;;;;;81.30;7.93;;;;;;;;;;4953160;28;20019;-54
2020/12/09 12:40:12;;;;;;;52.78;5.18;;;;;;;;;;4952568;28;20090;-59
2020/12/09 12:42:41;;;;;;;91.93;8.68;;;;;;;;;;4954907;28;20026;-51
2020/12/09 12:45:08;;;;;;;93.22;9.52;;;;;;;;;;4955759;29;20038;-48
2020/12/09 12:47:35;;;;;;;56.22;5.43;;;;;;;;;;4956672;29;20445;-50
2020/12/09 12:50:02;;;;;;;55.38;6.18;;;;;;;;;;4955875;29;20030;-49
2020/12/09 12:52:29;;;;;;;61.70;5.38;;;;;;;;;;4955854;29;20513;-51
2020/12/09 12:54:56;;;;;;;102.25;9.23;;;;;;;;;;4955651;29;20480;-49
2020/12/09 12:57:24;;;;;;;71.78;7.78;;;;;;;;;;4955996;29;20035;-48
2020/12/09 12:59:51;;;;;;;65.75;6.30;;;;;;;;;;4955913;29;20460;-48
2020/12/09 13:02:18;;;;;;;44.90;4.18;;;;;;;;;;4955715;29;20063;-51
2020/12/09 13:04:45;;;;;;;62.08;5.45;;;;;;;;;;4955368;29;20103;-47
2020/12/09 13:07:12;;;;;;;49.30;4.72;;;;;;;;;;4956272;29;20030;-54
2020/12/09 13:09:39;;;;;;;56.40;5.57;;;;;;;;;;4955716;29;20418;-46
2020/12/09 13:12:06;;;;;;;71.20;5.88;;;;;;;;;;4955940;29;20031;-48
2020/12/09 13:14:33;;;;;;;231.70;21.88;;;;;;;;;;4956158;29;20024;-44
2020/12/09 13:17:00;;;;;;;49.55;4.60;;;;;;;;;;4955960;29;20032;-44
2020/12/09 13:19:27;;;;;;;30.98;2.03;;;;;;;;;;4955844;29;20027;-43
2020/12/09 13:21:54;;;;;;;31.98;2.83;;;;;;;;;;4956039;29;20070;-45
2020/12/09 13:24:21;;;;;;;65.22;5.60;;;;;;;;;;4955951;29;20488;-47
2020/12/09 13:26:48;;;;;;;98.10;9.25;;;;;;;;;;4955699;29;20043;-48
2020/12/09 13:29:15;;;;;;;70.35;6.80;;;;;;;;;;4955409;29;20023;-45
2020/12/09 13:31:42;;;;;;;51.25;5.95;;;;;;;;;;4954338;29;20545;-44
2020/12/09 13:34:10;;;;;;;27.42;2.92;;;;;;;;;;4949476;28;20027;-45
2020/12/09 13:36:37;;;;;;;28.48;2.67;;;;;;;;;;4955550;28;20042;-46
2020/12/09 13:39:05;;;;;;;33.50;3.33;;;;;;;;;;4948073;28;20539;-47
2020/12/09 13:41:32;;;;;;;20.90;2.40;;;;;;;;;;4949173;28;20479;-45
2020/12/09 13:43:59;;;;;;;23.05;2.22;;;;;;;;;;4954778;28;20024;-44
2020/12/09 13:46:27;;;;;;;29.00;2.67;;;;;;;;;;4953095;28;20044;-46
2020/12/09 13:48:54;;;;;;;55.45;5.53;;;;;;;;;;4969393;28;20033;-46
2020/12/09 13:51:21;;;;;;;57.97;6.90;;;;;;;;;;4971797;28;20505;-49
2020/12/09 13:53:48;;;;;;;66.25;6.75;;;;;;;;;;4967734;28;20031;-45
2020/12/09 13:56:16;;;;;;;32.80;3.65;;;;;;;;;;4971265;28;20019;-44
2020/12/09 13:58:44;;;;;;;44.60;5.03;;;;;;;;;;4968438;28;20038;-47
2020/12/09 14:01:14;;;;;;;37.40;4.35;;;;;;;;;;4971618;28;20383;-47
2020/12/09 14:03:41;;;;;;;46.20;5.28;;;;;;;;;;4967690;28;20037;-46
2020/12/09 14:06:08;;;;;;;41.03;4.50;;;;;;;;;;4954075;29;20415;-50
2020/12/09 14:08:35;;;;;;;34.53;4.90;;;;;;;;;;4961534;28;20031;-46
2020/12/09 14:11:02;;;;;;;37.97;4.30;;;;;;;;;;4961492;28;20027;-45
2020/12/09 14:13:29;;;;;;;95.70;8.15;;;;;;;;;;4959745;28;20502;-52
2020/12/09 14:15:56;;;;;;;190.73;19.75;;;;;;;;;;4962946;28;20800;-46
2020/12/09 14:18:23;;;;;;;121.47;13.90;;;;;;;;;;4958979;28;20066;-45
2020/12/09 14:20:56;;;;;;;116.05;12.43;;;;;;;;;;4964151;28;20065;-44
2020/12/09 14:23:23;;;;;;;129.82;12.98;;;;;;;;;;4949386;28;20027;-42
2020/12/09 14:25:50;;;;;;;82.50;9.68;;;;;;;;;;4959550;28;20019;-42
2020/12/09 14:28:17;;;;;;;48.42;6.15;;;;;;;;;;4963847;28;20916;-45
2020/12/09 14:30:44;;;;;;;60.80;6.18;;;;;;;;;;4964043;28;20027;-45
2020/12/09 14:33:20;;;;;;;100.32;10.43;;;;;;;;;;4956261;28;20039;-42